Data for 12/01/2015

Time Sea-Level Adjusted Pressure Absolute Pressure Temperature Relative Humidity Dew Point   
(mb) (inHg) (mb) (inHg) (C) (F) (%) (C) (F)
00:05 1019 30.09 848 25.04 -10.6 13 64 -16.2 2.9
00:10 1019 30.09 848 25.04 -10.4 13.3 63 -16.1 3.1
00:15 1019 30.09 848 25.04 -10 14 62 -16 3.2
00:20 1019 30.09 848 25.04 -10 14.1 59 -16.5 2.3
00:25 1019 30.09 848 25.04 -10.3 13.5 61 -16.5 2.3
00:30 1019 30.09 848 25.04 -10.7 12.7 63 -16.5 2.3
00:35 1019 30.09 848 25.04 -10.8 12.6 64 -16.4 2.4
00:40 1019 30.09 848 25.04 -10.6 12.9 64 -16.1 3
00:45 1019 30.09 848 25.04 -10.6 12.8 65 -16 3.1
00:50 1019 30.09 848 25.04 -10.6 12.9 65 -16.1 3.1
00:55 1019 30.09 848 25.04 -10.7 12.7 64 -16.2 2.8
01:00 1019 30.09 848 25.04 -10.3 13.4 64 -15.9 3.4
01:05 1019 30.09 848 25.04 -10.3 13.4 61 -16.4 2.4
01:10 1019 30.09 848 25.04 -10.2 13.7 60 -16.6 2.2
01:15 1019 30.09 848 25.04 -10.4 13.2 62 -16.5 2.3
01:20 1019 30.09 848 25.04 -11.1 12 62 -17 1.4
01:25 1019 30.09 848 25.04 -11.3 11.7 62 -17.2 1.1
01:30 1019 30.09 848 25.04 -11.8 10.8 65 -17.1 1.2
01:35 1019 30.09 848 25.04 -11.8 10.8 65 -17.2 1.1
01:40 1019 30.09 848 25.04 -11.7 11 64 -17.2 1.1
01:45 1019 30.09 848 25.04 -11.3 11.6 65 -16.7 1.9
01:50 1019 30.09 848 25.04 -11 12.1 65 -16.4 2.5
01:55 1019 30.09 848 25.04 -10.7 12.7 62 -16.6 2.1
02:00 1019 30.09 848 25.04 -10.9 12.3 65 -16.4 2.6
02:05 1019 30.09 848 25.04 -11.2 11.9 65 -16.6 2.2
02:10 1019 30.09 848 25.04 -11.3 11.6 65 -16.7 2
02:15 1019 30.09 848 25.04 -11.7 10.9 68 -16.5 2.2
02:20 1019 30.09 848 25.04 -11.9 10.6 69 -16.4 2.5
02:25 1019 30.09 848 25.04 -11.7 10.9 70 -16.2 2.8
02:30 1019 30.09 848 25.04 -11 12.2 65 -16.4 2.4
02:35 1019 30.09 848 25.04 -10.5 13 62 -16.6 2.2
02:40 1019 30.09 848 25.04 -10.8 12.5 62 -16.7 1.9
02:45 1019 30.09 848 25.04 -11.3 11.6 64 -16.9 1.6
02:50 1019 30.09 848 25.04 -11.6 11.2 66 -16.8 1.8
02:55 1019 30.09 848 25.04 -11 12.2 64 -16.5 2.3
03:00 1019 30.09 848 25.04 -11.1 12.1 65 -16.5 2.3
03:05 1019 30.09 848 25.04 -11.3 11.7 66 -16.4 2.5
03:10 1019 30.09 848 25.04 -11 12.2 65 -16.3 2.7
03:15 1019 30.09 848 25.04 -10.9 12.4 66 -16 3.1
03:20 1019 30.09 848 25.04 -10.8 12.5 66 -16.1 3.1
03:25 1019 30.09 848 25.04 -10.9 12.3 66 -16.1 3
03:30 1019 30.09 848 25.04 -11.2 11.8 66 -16.3 2.7
03:35 1019 30.09 848 25.04 -11.3 11.6 66 -16.5 2.3
03:40 1019 30.09 849 25.07 -11 12.1 66 -16.2 2.8
03:45 1019 30.09 849 25.07 -11.2 11.9 67 -16.1 3
03:50 1020 30.12 849 25.07 -11.7 10.9 69 -16.3 2.6
03:55 1020 30.12 849 25.07 -11.7 11 69 -16.3 2.6
04:00 1020 30.12 849 25.07 -11.5 11.3 68 -16.3 2.6
04:05 1020 30.12 849 25.07 -11.6 11.1 69 -16.3 2.7
04:10 1020 30.12 849 25.07 -11.6 11.1 67 -16.5 2.2
04:15 1020 30.12 849 25.07 -11.6 11.1 68 -16.4 2.4
04:20 1020 30.12 849 25.07 -11.5 11.4 67 -16.4 2.5
04:25 1020 30.12 849 25.07 -11.2 11.8 67 -16.2 2.8
04:30 1020 30.12 849 25.07 -11.2 11.9 67 -16.2 2.9
04:35 1020 30.12 849 25.07 -11 12.2 66 -16.3 2.7
04:40 1020 30.12 849 25.07 -11.3 11.7 68 -16.1 3
04:45 1020 30.12 849 25.07 -11 12.1 66 -16.1 3
04:50 1020 30.12 849 25.07 -10.9 12.4 66 -16 3.2
04:55 1020 30.12 849 25.07 -10.4 13.3 63 -16.1 3
05:00 1020 30.12 849 25.07 -10.4 13.4 66 -15.6 3.9
05:05 1020 30.12 849 25.07 -10.4 13.3 63 -16.2 2.9
05:10 1020 30.12 849 25.07 -10.2 13.6 63 -16 3.3
05:15 1020 30.12 849 25.07 -10 14.1 63 -15.8 3.5
05:20 1020 30.12 849 25.07 -10.1 13.9 63 -15.9 3.4
05:25 1020 30.12 849 25.07 -10.4 13.4 64 -16 3.3
05:30 1020 30.12 849 25.07 -10.8 12.6 65 -16.2 2.9
05:35 1020 30.12 849 25.07 -10.8 12.7 65 -16.2 2.9
05:40 1020 30.12 849 25.07 -10.5 13.1 64 -16 3.2
05:45 1020 30.12 849 25.07 -11.1 12 66 -16.2 2.8
05:50 1020 30.12 849 25.07 -11.1 12.1 66 -16.3 2.7
05:55 1020 30.12 849 25.07 -11.1 12 66 -16.3 2.6
06:00 1020 30.12 849 25.07 -11.4 11.5 67 -16.4 2.5
06:05 1020 30.12 849 25.07 -11.8 10.7 70 -16.3 2.6
06:10 1020 30.12 849 25.07 -11.9 10.6 68 -16.7 1.9
06:15 1020 30.12 849 25.07 -11.1 12 65 -16.5 2.3
06:20 1020 30.12 849 25.07 -11.3 11.7 65 -16.5 2.2
06:25 1020 30.12 849 25.07 -11.8 10.8 67 -16.7 2
06:30 1020 30.12 849 25.07 -11.1 11.9 65 -16.5 2.3
06:35 1020 30.12 849 25.07 -10.7 12.7 64 -16.3 2.7
06:40 1020 30.12 850 25.1 -10.7 12.7 64 -16.3 2.6
06:45 1020 30.12 850 25.1 -11.1 12 66 -16.4 2.5
06:50 1020 30.12 850 25.1 -11.2 11.9 65 -16.5 2.3
06:55 1020 30.12 850 25.1 -11.5 11.3 67 -16.5 2.3
07:00 1020 30.12 850 25.1 -11.7 11 66 -16.8 1.7
07:05 1021 30.15 850 25.1 -11.6 11.2 66 -16.7 2
07:10 1021 30.15 850 25.1 -11.7 11 66 -16.8 1.8
07:15 1021 30.15 850 25.1 -11.6 11.2 66 -16.8 1.8
07:20 1021 30.15 850 25.1 -11.6 11.1 65 -16.9 1.5
07:25 1021 30.15 850 25.1 -11 12.2 63 -16.8 1.8
07:30 1021 30.15 850 25.1 -10.4 13.3 56 -17.5 0.5
07:35 1021 30.15 850 25.1 -9.6 14.8 54 -17.2 1.1
07:40 1021 30.15 850 25.1 -9.7 14.6 55 -17.2 1.1
07:45 1021 30.15 850 25.1 -9.9 14.2 55 -17.2 1
07:50 1021 30.15 850 25.1 -10.3 13.5 58 -17 1.3
07:55 1021 30.15 850 25.1 -11.2 11.8 61 -17.3 0.9
08:00 1021 30.15 850 25.1 -11.2 11.8 61 -17.4 0.6
08:05 1021 30.15 850 25.1 -11.2 11.9 59 -17.6 0.3
08:10 1021 30.15 850 25.1 -10.6 12.8 58 -17.4 0.7
08:15 1021 30.15 850 25.1 -11 12.2 60 -17.4 0.7
08:20 1021 30.15 850 25.1 -10.9 12.3 59 -17.4 0.7
08:25 1021 30.15 850 25.1 -10.6 12.9 59 -17.2 1
08:30 1021 30.15 850 25.1 -10.7 12.7 59 -17.2 1
08:35 1021 30.15 850 25.1 -10.8 12.6 60 -17.1 1.2
08:40 1021 30.15 851 25.13 -11.3 11.7 62 -17.1 1.2
08:45 1021 30.15 851 25.13 -11.7 10.9 64 -17.2 1
08:50 1021 30.15 851 25.13 -11.8 10.8 64 -17.2 1
08:55 1021 30.15 851 25.13 -11.6 11.1 65 -17 1.5
09:00 1021 30.15 851 25.13 -11.7 10.9 66 -16.9 1.5
09:05 1021 30.15 851 25.13 -11.7 10.9 66 -16.9 1.5
09:10 1021 30.15 851 25.13 -11.6 11 64 -17.2 1
09:15 1021 30.15 851 25.13 -11.1 12 61 -17.2 1
09:20 1021 30.15 851 25.13 -10.4 13.4 59 -17 1.5
09:25 1021 30.15 851 25.13 -9.9 14.1 57 -17 1.5
09:30 1021 30.15 851 25.13 -9.9 14.2 58 -16.6 2.1
09:35 1022 30.18 851 25.13 -9.5 14.8 55 -16.9 1.6
09:40 1022 30.18 851 25.13 -9.4 15.1 53 -17.2 1
09:45 1022 30.18 851 25.13 -8.7 16.4 50 -17.3 0.9
09:50 1022 30.18 851 25.13 -8.3 17 51 -16.7 1.9
09:55 1022 30.18 851 25.13 -9.1 15.7 56 -16.2 2.8
10:00 1022 30.18 851 25.13 -9.3 15.4 57 -16.2 2.8
10:05 1022 30.18 851 25.13 -9 15.8 54 -16.8 1.8
10:10 1022 30.18 851 25.13 -8.6 16.4 51 -17.1 1.3
10:15 1022 30.18 851 25.13 -8.5 16.8 51 -16.8 1.7
10:20 1022 30.18 851 25.13 -8.2 17.2 51 -16.7 2
10:25 1022 30.18 851 25.13 -7.6 18.4 48 -16.8 1.7
10:30 1022 30.18 851 25.13 -7.2 19.1 47 -16.6 2
10:35 1022 30.18 851 25.13 -7.3 18.8 49 -16.4 2.4
10:40 1022 30.18 851 25.13 -7.8 18 52 -16 3.2
10:45 1022 30.18 851 25.13 -7.5 18.5 50 -16.4 2.5
10:50 1022 30.18 851 25.13 -7.4 18.7 49 -16.5 2.4
10:55 1022 30.18 851 25.13 -7 19.3 47 -16.6 2.1
11:00 1022 30.18 851 25.13 -6.8 19.8 49 -15.9 3.4
11:05 1022 30.18 851 25.13 -6.1 21 47 -15.6 3.8
11:10 1022 30.18 851 25.13 -5.7 21.8 44 -16.1 3.1
11:15 1022 30.18 851 25.13 -5.8 21.6 44 -16.3 2.7
11:20 1022 30.18 851 25.13 -5.4 22.2 43 -16.2 2.8
11:25 1022 30.18 852 25.16 -5.4 22.2 43 -16.2 2.8
11:30 1022 30.18 852 25.16 -5.2 22.7 43 -15.9 3.4
11:35 1022 30.18 852 25.16 -4.7 23.5 43 -15.4 4.3
11:40 1022 30.18 852 25.16 -4.4 24 43 -15.1 4.7
11:45 1022 30.18 851 25.13 -4 24.8 40 -15.6 4
11:50 1022 30.18 851 25.13 -3.6 25.5 40 -15.3 4.4
11:55 1022 30.18 851 25.13 -3.3 26.1 37 -16.1 3.1
12:00 1022 30.18 851 25.13 -3.3 26 37 -16 3.1
12:05 1022 30.18 851 25.13 -3.1 26.3 38 -15.7 3.8
12:10 1022 30.18 851 25.13 -3.5 25.6 38 -15.8 3.6
12:15 1022 30.18 851 25.13 -3.7 25.3 40 -15.5 4.1
12:20 1022 30.18 851 25.13 -4 24.8 41 -15.3 4.5
12:25 1022 30.18 851 25.13 -4.1 24.6 41 -15.5 4.1
12:30 1022 30.18 851 25.13 -4 24.7 43 -14.8 5.3
12:35 1022 30.18 851 25.13 -4 24.7 43 -15 5.1
12:40 1022 30.18 851 25.13 -4.3 24.3 45 -14.4 6.1
12:45 1022 30.18 851 25.13 -3.5 25.6 43 -14.3 6.2
12:50 1022 30.18 851 25.13 -3.1 26.4 43 -14 6.9
12:55 1022 30.18 851 25.13 -2.8 27 43 -13.8 7.1
13:00 1022 30.18 851 25.13 -2.5 27.4 41 -14.1 6.5
13:05 1022 30.18 851 25.13 -2.5 27.6 40 -14.2 6.4
13:10 1022 30.18 851 25.13 -2.4 27.7 41 -13.9 6.9
13:15 1022 30.18 851 25.13 -2.4 27.7 41 -14 6.8
13:20 1022 30.18 851 25.13 -2.4 27.7 41 -13.9 7
13:25 1022 30.18 851 25.13 -2.6 27.3 40 -14.4 6.2
13:30 1022 30.18 851 25.13 -2.9 26.8 42 -14 6.9
13:35 1022 30.18 851 25.13 -3 26.7 39 -15.2 4.7
13:40 1022 30.18 851 25.13 -3.1 26.4 42 -14.5 6
13:45 1022 30.18 851 25.13 -3.1 26.4 43 -14.1 6.6
13:50 1022 30.18 851 25.13 -2.7 27.1 44 -13.3 8
13:55 1022 30.18 851 25.13 -2.4 27.7 40 -14.3 6.3
14:00 1022 30.18 851 25.13 -1.7 28.9 39 -13.9 7.1
14:05 1022 30.18 851 25.13 -1.8 28.8 40 -13.8 7.1
14:10 1022 30.18 851 25.13 -1.5 29.4 37 -14.5 6
14:15 1022 30.18 851 25.13 -1.6 29.1 37 -14.4 6
14:20 1022 30.18 851 25.13 -2 28.5 38 -14.5 5.8
14:25 1022 30.18 851 25.13 -1.9 28.6 36 -15.1 4.8
14:30 1022 30.18 851 25.13 -1.9 28.5 35 -15.5 4.1
14:35 1022 30.18 851 25.13 -1.8 28.7 36 -15 5
14:40 1022 30.18 851 25.13 -1.5 29.4 36 -14.8 5.3
14:45 1022 30.18 851 25.13 -1.1 30 35 -14.8 5.4
14:50 1022 30.18 851 25.13 -1.2 29.9 36 -14.5 5.9
14:55 1022 30.18 851 25.13 -1 30.2 37 -14 6.8
15:00 1022 30.18 851 25.13 -0.9 30.3 36 -14.2 6.4
15:05 1022 30.18 851 25.13 -0.5 31.1 36 -13.9 6.9
15:10 1022 30.18 851 25.13 0.1 32.1 34 -13.9 6.9
15:15 1022 30.18 851 25.13 0.4 32.6 34 -13.6 7.5
15:20 1022 30.18 851 25.13 -0.1 31.8 35 -13.8 7.1
15:25 1022 30.18 851 25.13 0 32 34 -14 6.8
15:30 1022 30.18 851 25.13 0.5 32.9 32 -14.2 6.4
15:35 1022 30.18 851 25.13 0.2 32.4 33 -14.3 6.3
15:40 1022 30.18 851 25.13 0.2 32.4 33 -14.2 6.4
15:45 1022 30.18 851 25.13 1 33.7 32 -14.1 6.6
15:50 1022 30.18 851 25.13 1.3 34.4 31 -14.1 6.6
15:55 1022 30.18 851 25.13 1.4 34.6 30 -14.2 6.5
16:00 1022 30.18 851 25.13 1.7 35.1 29 -14.4 6.1
16:05 1022 30.18 851 25.13 1.5 34.7 31 -14.1 6.6
16:10 1022 30.18 851 25.13 0.9 33.7 33 -13.7 7.3
16:15 1022 30.18 851 25.13 0.9 33.6 33 -13.5 7.6
16:20 1022 30.18 851 25.13 0.7 33.2 36 -12.9 8.7
16:25 1022 30.18 851 25.13 0.5 32.9 36 -12.8 8.9
16:30 1022 30.18 851 25.13 0.6 33 36 -12.7 9.1
16:35 1022 30.18 851 25.13 0.6 33 36 -12.8 8.9
16:40 1022 30.18 851 25.13 0.4 32.8 37 -12.6 9.3
16:45 1022 30.18 851 25.13 0.1 32.2 38 -12.7 9.2
16:50 1022 30.18 851 25.13 0.1 32.1 39 -12.4 9.7
16:55 1022 30.18 851 25.13 -0.4 31.2 39 -12.6 9.2
17:00 1022 30.18 851 25.13 -0.5 31.1 39 -12.8 8.9
17:05 1022 30.18 851 25.13 -0.9 30.3 39 -13.2 8.2
17:10 1022 30.18 851 25.13 -1.5 29.3 42 -12.7 9.2
17:15 1022 30.18 851 25.13 -1.7 29 41 -13.4 7.9
17:20 1022 30.18 852 25.16 -1.7 29 42 -13.1 8.5
17:25 1022 30.18 852 25.16 -1.8 28.7 41 -13.5 7.8
17:30 1022 30.18 852 25.16 -2.1 28.2 41 -13.7 7.3
17:35 1022 30.18 852 25.16 -2.6 27.4 42 -13.8 7.2
17:40 1022 30.18 852 25.16 -3 26.6 42 -14.2 6.4
17:45 1022 30.18 852 25.16 -3.3 26.1 43 -14.1 6.5
17:50 1022 30.18 852 25.16 -3.6 25.6 45 -13.9 7
17:55 1022 30.18 852 25.16 -3.8 25.1 46 -13.8 7.2
18:00 1022 30.18 852 25.16 -4.1 24.7 46 -13.9 6.9
18:05 1022 30.18 852 25.16 -4.1 24.7 47 -13.9 7.1
18:10 1022 30.18 852 25.16 -4.2 24.4 47 -14 6.9
18:15 1022 30.18 852 25.16 -4.2 24.4 46 -14.3 6.3
18:20 1022 30.18 852 25.16 -4.3 24.3 49 -13.5 7.7
18:25 1022 30.18 851 25.13 -4.8 23.4 50 -13.8 7.2
18:30 1022 30.18 851 25.13 -4.9 23.2 50 -13.9 7.1
18:35 1022 30.18 851 25.13 -4.9 23.2 50 -13.7 7.3
18:40 1022 30.18 852 25.16 -4.8 23.3 51 -13.6 7.5
18:45 1022 30.18 852 25.16 -4.8 23.3 53 -13.1 8.4
18:50 1022 30.18 852 25.16 -4.9 23.1 53 -13.1 8.3
18:55 1022 30.18 852 25.16 -4.7 23.5 51 -13.5 7.7
19:00 1022 30.18 852 25.16 -4.5 23.9 50 -13.3 8
19:05 1022 30.18 852 25.16 -4.7 23.6 52 -13 8.6
19:10 1022 30.18 852 25.16 -5.1 22.8 54 -13.1 8.5
19:15 1022 30.18 852 25.16 -5.5 22.1 56 -13 8.6
19:20 1023 30.21 852 25.16 -5.6 22 56 -13.1 8.4
19:25 1023 30.21 852 25.16 -5.5 22.1 55 -13.1 8.3
19:30 1023 30.21 852 25.16 -5.3 22.5 55 -12.9 8.7
19:35 1023 30.21 852 25.16 -5.3 22.5 55 -13 8.5
19:40 1023 30.21 852 25.16 -5.4 22.3 55 -13 8.7
19:45 1023 30.21 852 25.16 -5.4 22.2 57 -12.7 9.1
19:50 1023 30.21 852 25.16 -5.4 22.2 57 -12.7 9.2
19:55 1023 30.21 852 25.16 -5.8 21.5 57 -13 8.6
20:00 1023 30.21 852 25.16 -6 21.2 58 -12.9 8.7
20:05 1023 30.21 852 25.16 -6.6 20.1 60 -13.1 8.4
20:10 1023 30.21 852 25.16 -6.5 20.3 58 -13.4 7.8
20:15 1023 30.21 852 25.16 -6.2 20.8 57 -13.3 8
20:20 1023 30.21 852 25.16 -6.2 20.9 58 -13 8.5
20:25 1023 30.21 852 25.16 -6.2 20.8 57 -13.5 7.7
20:30 1023 30.21 852 25.16 -6.2 20.8 58 -13.1 8.3
20:35 1022 30.18 852 25.16 -6.3 20.7 58 -13.3 8.1
20:40 1022 30.18 852 25.16 -6.3 20.6 57 -13.4 7.8
20:45 1023 30.21 852 25.16 -6 21.3 57 -13.1 8.4
20:50 1022 30.18 852 25.16 -6.5 20.2 58 -13.4 7.8
20:55 1022 30.18 852 25.16 -6.8 19.8 59 -13.4 7.9
21:00 1022 30.18 852 25.16 -6.8 19.7 59 -13.5 7.6
21:05 1022 30.18 851 25.13 -6.4 20.5 55 -13.9 6.9
21:10 1022 30.18 851 25.13 -7.1 19.3 61 -13.4 7.9
21:15 1022 30.18 851 25.13 -7.6 18.3 61 -13.9 7
21:20 1022 30.18 851 25.13 -7.1 19.2 58 -14 6.7
21:25 1022 30.18 851 25.13 -6.7 20 57 -13.8 7.2
21:30 1022 30.18 852 25.16 -6.2 20.9 56 -13.6 7.5
21:35 1022 30.18 852 25.16 -6 21.1 55 -13.6 7.5
21:40 1022 30.18 852 25.16 -5.8 21.5 54 -13.7 7.3
21:45 1022 30.18 852 25.16 -5.6 21.9 54 -13.6 7.5
21:50 1022 30.18 852 25.16 -5.7 21.7 53 -13.9 7
21:55 1022 30.18 852 25.16 -5.7 21.7 54 -13.7 7.4
22:00 1022 30.18 852 25.16 -6.1 21.1 56 -13.5 7.6
22:05 1022 30.18 852 25.16 -6.6 20.1 58 -13.6 7.5
22:10 1022 30.18 852 25.16 -6.6 20.1 57 -13.9 7
22:15 1022 30.18 852 25.16 -6.6 20.2 57 -13.7 7.3
22:20 1022 30.18 852 25.16 -6.7 20 57 -13.9 7
22:25 1022 30.18 852 25.16 -6.5 20.4 55 -14 6.7
22:30 1022 30.18 851 25.13 -6 21.2 54 -14 6.8
22:35 1022 30.18 851 25.13 -5.8 21.6 54 -13.8 7.2
22:40 1022 30.18 852 25.16 -5.6 21.8 53 -13.8 7.2
22:45 1022 30.18 852 25.16 -5.9 21.4 55 -13.7 7.4
22:50 1022 30.18 851 25.13 -6.2 20.8 55 -13.8 7.2
22:55 1022 30.18 851 25.13 -5.9 21.4 54 -13.8 7.2
23:00 1022 30.18 851 25.13 -5.8 21.5 55 -13.6 7.5
23:05 1022 30.18 851 25.13 -6.3 20.6 57 -13.6 7.6
23:10 1022 30.18 851 25.13 -6.2 20.8 55 -13.9 6.9
23:15 1022 30.18 851 25.13 -5.7 21.8 53 -13.7 7.3
23:20 1022 30.18 851 25.13 -5.6 21.8 59 -12.5 9.4
23:25 1022 30.18 851 25.13 -6.7 20 62 -12.8 9
23:30 1022 30.18 851 25.13 -6.9 19.5 62 -13 8.7
23:35 1022 30.18 851 25.13 -7.2 19 64 -13 8.7
23:40 1022 30.18 851 25.13 -7.3 18.9 64 -13 8.7
23:45 1022 30.18 851 25.13 -6.8 19.7 59 -13.5 7.6
23:50 1022 30.18 851 25.13 -6.1 21 59 -12.8 8.9
23:55 1022 30.18 851 25.13 -6 21.1 57 -13.3 8
24:00 1022 30.18 852 25.16 -6.4 20.6 59 -13.2 8.2